Time;durP1;ratioP1;P1;durP2;ratioP2;P2;SDS_P1;SDS_P2;PMS_P1;PMS_P2;Temp;Humidity;BMP_temperature;BMP_pressure;BME280_temperature;BME280_humidity;BME280_pressure;Samples;Min_cycle;Max_cycle;Signal;HPM_P1;HPM_P2
2022/01/10 00:01:05;;;;;;;54.95;49.17;;;15.10;61.00;;;;;;4998631;27;89148;-72
2022/01/10 00:03:31;;;;;;;53.50;48.10;;;15.10;60.80;;;;;;4999046;27;89598;-72
2022/01/10 00:05:56;;;;;;;53.53;48.05;;;15.10;60.90;;;;;;5003043;27;92876;-72
2022/01/10 00:08:23;;;;;;;54.58;48.75;;;15.00;60.90;;;;;;4987882;27;91205;-72
2022/01/10 00:10:51;;;;;;;54.35;48.60;;;15.00;61.10;;;;;;4986115;27;89391;-72
2022/01/10 00:13:17;;;;;;;54.13;48.53;;;14.90;61.10;;;;;;4989727;27;89752;-71
2022/01/10 00:15:44;;;;;;;53.78;48.22;;;14.90;60.90;;;;;;4989923;27;90937;-72
2022/01/10 00:18:10;;;;;;;54.90;48.95;;;14.90;61.50;;;;;;4999316;27;89278;-72
2022/01/10 00:20:36;;;;;;;54.67;48.88;;;15.00;62.20;;;;;;4994162;27;89395;-72
2022/01/10 00:23:03;;;;;;;54.25;48.75;;;15.10;60.90;;;;;;5007653;27;88370;-71
2022/01/10 00:25:28;;;;;;;54.47;48.72;;;15.10;60.90;;;;;;5013375;27;88987;-72
2022/01/10 00:27:55;;;;;;;54.40;48.78;;;15.30;61.00;;;;;;5008704;27;89802;-72
2022/01/10 00:30:23;;;;;;;55.08;49.47;;;15.40;60.40;;;;;;5010763;27;91036;-71
2022/01/10 00:32:49;;;;;;;54.63;48.80;;;15.50;60.30;;;;;;4997595;27;89728;-72
2022/01/10 00:35:14;;;;;;;53.70;48.20;;;15.60;60.20;;;;;;5002646;27;89670;-72
2022/01/10 00:37:43;;;;;;;54.30;48.60;;;15.80;59.50;;;;;;5004677;27;90090;-72
2022/01/10 00:40:11;;;;;;;55.08;49.33;;;15.90;59.30;;;;;;4982101;27;89913;-72
2022/01/10 00:42:36;;;;;;;53.97;48.22;;;16.00;59.10;;;;;;5001543;27;89431;-72
2022/01/10 00:45:12;;;;;;;54.58;48.88;;;16.10;58.60;;;;;;5000912;27;91071;-72
2022/01/10 00:47:38;;;;;;;53.70;48.20;;;16.20;58.50;;;;;;5005770;27;89115;-72
2022/01/10 00:50:04;;;;;;;54.55;48.78;;;16.30;58.40;;;;;;4995383;27;90610;-72
2022/01/10 00:52:30;;;;;;;53.90;48.30;;;16.30;58.30;;;;;;5002367;27;89897;-72
2022/01/10 00:54:56;;;;;;;53.47;48.05;;;16.30;58.10;;;;;;5000271;27;94921;-72
2022/01/10 00:57:21;;;;;;;53.38;47.88;;;16.40;58.10;;;;;;4981883;27;90663;-71
2022/01/10 00:59:47;;;;;;;54.15;48.25;;;16.50;57.30;;;;;;4994840;27;93166;-72
2022/01/10 01:02:12;;;;;;;53.35;47.83;;;16.50;58.00;;;;;;4992984;27;89807;-72
2022/01/10 01:04:38;;;;;;;54.35;48.63;;;16.50;57.70;;;;;;4995734;27;94652;-71
2022/01/10 01:07:04;;;;;;;53.92;48.38;;;16.40;57.80;;;;;;5002368;27;95182;-71
2022/01/10 01:09:31;;;;;;;53.58;48.08;;;16.40;58.00;;;;;;5002933;27;95266;-72
2022/01/10 01:17:31;;;;;;;54.15;48.45;;;16.40;57.50;;;;;;4998696;27;94700;-72
2022/01/10 01:25:14;;;;;;;53.15;47.85;;;16.30;57.40;;;;;;4991735;27;90087;-73
2022/01/10 01:27:43;;;;;;;53.05;47.65;;;16.20;58.00;;;;;;324375;28;10099990;-71
2022/01/10 01:30:10;;;;;;;53.15;47.78;;;16.30;58.00;;;;;;4975115;28;88948;-71
2022/01/10 01:32:36;;;;;;;53.38;47.97;;;16.20;58.30;;;;;;4977580;28;90866;-72
2022/01/10 01:35:06;;;;;;;53.60;48.25;;;16.30;57.60;;;;;;4978118;28;90930;-72
2022/01/10 01:37:32;;;;;;;53.13;47.75;;;16.30;57.90;;;;;;4977851;28;89015;-72
2022/01/10 01:39:59;;;;;;;52.80;47.42;;;16.40;57.90;;;;;;4962835;28;88811;-72
2022/01/10 01:42:42;;;;;;;52.78;47.38;;;16.40;57.70;;;;;;4981039;28;91397;-71
2022/01/10 01:45:11;;;;;;;53.58;48.08;;;16.40;57.60;;;;;;4977665;28;92926;-72
2022/01/10 01:47:38;;;;;;;53.00;47.58;;;16.50;57.40;;;;;;4967917;28;91017;-72
2022/01/10 01:50:07;;;;;;;53.08;47.58;;;16.50;57.30;;;;;;4981054;28;89361;-71
2022/01/10 01:52:33;;;;;;;53.35;47.83;;;16.50;57.10;;;;;;4979686;28;89879;-71
2022/01/10 01:54:59;;;;;;;52.92;47.67;;;16.50;56.80;;;;;;4979425;28;89125;-72
2022/01/10 01:57:26;;;;;;;54.03;48.35;;;16.50;56.60;;;;;;4978627;28;89123;-72
2022/01/10 01:59:52;;;;;;;54.25;48.58;;;16.40;57.10;;;;;;4980015;28;89781;-72
2022/01/10 02:02:19;;;;;;;53.40;47.90;;;16.40;56.60;;;;;;4956002;28;89285;-71
2022/01/10 02:04:44;;;;;;;53.55;48.03;;;16.40;56.90;;;;;;4973417;28;90988;-72
2022/01/10 02:07:10;;;;;;;53.25;47.72;;;16.30;56.80;;;;;;4975560;28;89139;-71
2022/01/10 02:09:36;;;;;;;53.50;48.08;;;16.30;57.10;;;;;;4979138;28;90284;-72
2022/01/10 02:12:02;;;;;;;53.28;47.88;;;16.30;56.50;;;;;;4980959;28;89089;-72
2022/01/10 02:14:28;;;;;;;53.92;48.45;;;16.20;57.00;;;;;;4977097;28;94798;-71
2022/01/10 02:16:55;;;;;;;53.63;48.03;;;16.10;57.40;;;;;;4978371;28;91927;-71
2022/01/10 02:19:23;;;;;;;53.30;47.88;;;16.10;57.40;;;;;;4979969;28;88846;-71
2022/01/10 02:21:49;;;;;;;53.40;48.00;;;16.00;57.60;;;;;;4973218;28;94298;-71
2022/01/10 02:24:15;;;;;;;53.47;48.05;;;16.00;58.10;;;;;;4962100;28;92215;-71
2022/01/10 02:26:45;;;;;;;53.53;47.97;;;15.90;57.60;;;;;;4981420;28;88533;-70
2022/01/10 02:29:11;;;;;;;53.72;48.22;;;15.80;58.00;;;;;;4995188;27;94546;-71
2022/01/10 02:31:40;;;;;;;53.47;48.05;;;15.80;58.60;;;;;;5006122;27;90113;-71
2022/01/10 02:34:06;;;;;;;52.97;47.58;;;15.80;57.90;;;;;;5005283;27;90118;-71
2022/01/10 02:36:32;;;;;;;53.50;48.00;;;15.60;57.80;;;;;;5002476;27;89804;-72
2022/01/10 02:39:08;;;;;;;53.38;47.95;;;15.40;58.30;;;;;;5002503;27;89801;-71
2022/01/10 02:41:37;;;;;;;53.30;47.95;;;15.30;59.10;;;;;;4979330;27;90316;-72
2022/01/10 02:44:05;;;;;;;53.53;47.90;;;15.30;58.60;;;;;;5002271;27;89373;-72
2022/01/10 02:46:34;;;;;;;52.83;47.55;;;15.20;58.90;;;;;;5005533;27;89959;-71
2022/01/10 02:49:00;;;;;;;52.92;47.63;;;15.10;59.50;;;;;;4976287;27;93867;-71
2022/01/10 02:51:26;;;;;;;53.10;47.80;;;15.10;59.80;;;;;;5000757;27;88411;-71
2022/01/10 02:53:52;;;;;;;53.63;47.97;;;15.10;59.30;;;;;;5008943;27;89415;-71
2022/01/10 02:56:17;;;;;;;53.17;47.70;;;15.00;59.50;;;;;;5007220;27;95688;-72
2022/01/10 02:58:43;;;;;;;53.70;48.25;;;14.90;59.50;;;;;;4999996;27;94319;-72
2022/01/10 03:01:09;;;;;;;53.03;47.70;;;14.90;59.70;;;;;;5004737;27;88648;-71
2022/01/10 03:03:35;;;;;;;53.22;47.72;;;14.80;60.30;;;;;;5002281;27;93526;-71
2022/01/10 03:06:01;;;;;;;53.42;47.75;;;14.80;60.80;;;;;;4998252;27;89396;-71
2022/01/10 03:08:29;;;;;;;52.60;47.28;;;15.00;59.80;;;;;;4989003;27;88835;-71
2022/01/10 03:10:55;;;;;;;53.92;48.25;;;15.10;59.60;;;;;;5006789;27;89952;-71
2022/01/10 03:13:21;;;;;;;53.72;48.17;;;15.30;59.40;;;;;;5009053;27;94085;-73
2022/01/10 03:15:47;;;;;;;53.50;48.10;;;15.30;59.40;;;;;;5005573;27;88608;-71
2022/01/10 03:18:13;;;;;;;52.75;47.25;;;15.30;59.10;;;;;;5007636;27;89523;-71
2022/01/10 03:20:39;;;;;;;53.33;47.83;;;15.30;58.40;;;;;;4993705;27;89418;-71
2022/01/10 03:23:05;;;;;;;53.65;48.05;;;15.40;58.90;;;;;;5001181;27;89933;-71
2022/01/10 03:25:30;;;;;;;52.25;47.05;;;15.50;58.90;;;;;;5008382;27;88996;-71
2022/01/10 03:27:57;;;;;;;52.95;47.65;;;15.50;59.10;;;;;;5010621;27;89885;-71
2022/01/10 03:30:22;;;;;;;53.75;48.15;;;15.60;58.80;;;;;;5003480;27;88921;-71
2022/01/10 03:32:50;;;;;;;53.33;47.80;;;15.70;58.30;;;;;;4992442;27;89233;-71
2022/01/10 03:35:17;;;;;;;53.50;48.05;;;15.80;58.20;;;;;;5003911;27;89931;-71
2022/01/10 03:37:42;;;;;;;53.38;47.95;;;15.80;58.60;;;;;;5007345;27;88816;-72
2022/01/10 03:40:09;;;;;;;52.75;47.38;;;15.90;57.70;;;;;;4999906;27;87939;-71
2022/01/10 03:42:35;;;;;;;52.13;46.85;;;15.90;57.60;;;;;;5003363;27;90128;-71
2022/01/10 03:45:02;;;;;;;52.83;47.42;;;16.10;57.80;;;;;;5000307;27;90240;-71
2022/01/10 03:47:28;;;;;;;52.97;47.63;;;16.10;57.50;;;;;;5002843;27;91659;-72
2022/01/10 03:49:53;;;;;;;52.70;47.30;;;16.20;57.40;;;;;;5003665;27;89406;-71
2022/01/10 03:52:19;;;;;;;53.33;47.65;;;16.30;56.90;;;;;;5000850;27;94563;-71
2022/01/10 03:54:45;;;;;;;53.22;47.72;;;16.30;56.80;;;;;;4997539;27;91294;-71
2022/01/10 03:57:11;;;;;;;52.97;47.58;;;16.30;56.70;;;;;;5008768;27;89462;-71
2022/01/10 03:59:37;;;;;;;52.83;47.40;;;16.30;56.70;;;;;;4997933;27;91097;-71
2022/01/10 04:02:04;;;;;;;52.75;47.45;;;16.30;56.80;;;;;;4994597;27;91021;-71
2022/01/10 04:04:30;;;;;;;52.33;47.03;;;16.30;56.50;;;;;;4985780;27;92813;-71
2022/01/10 04:06:56;;;;;;;51.88;46.70;;;16.30;56.50;;;;;;5000686;27;89772;-71
2022/01/10 04:09:22;;;;;;;52.28;46.88;;;16.30;56.50;;;;;;4999797;27;88912;-71
2022/01/10 04:11:48;;;;;;;52.20;47.03;;;16.30;56.60;;;;;;4976151;27;92194;-71
2022/01/10 04:14:14;;;;;;;52.67;47.38;;;16.20;56.30;;;;;;5001766;27;93576;-71
2022/01/10 04:16:40;;;;;;;53.15;47.65;;;16.20;56.90;;;;;;4998645;27;90187;-71
2022/01/10 04:19:06;;;;;;;52.28;47.00;;;16.10;56.80;;;;;;5003696;27;88497;-71
2022/01/10 04:21:32;;;;;;;52.70;47.30;;;16.10;56.60;;;;;;5001425;27;89513;-72
2022/01/10 04:23:58;;;;;;;52.63;47.35;;;16.00;56.30;;;;;;5011439;27;90123;-71
2022/01/10 04:26:24;;;;;;;52.45;47.15;;;16.00;56.40;;;;;;5010838;27;89385;-71
2022/01/10 04:28:50;;;;;;;52.33;47.08;;;16.00;56.50;;;;;;4984519;27;88784;-71
2022/01/10 04:31:16;;;;;;;52.72;47.38;;;15.90;56.80;;;;;;4980338;27;88714;-71
2022/01/10 04:33:41;;;;;;;52.28;46.97;;;15.80;56.90;;;;;;5007316;27;88446;-71
2022/01/10 04:36:07;;;;;;;52.92;47.55;;;15.80;57.20;;;;;;4993541;27;91316;-71
2022/01/10 04:38:34;;;;;;;52.78;47.28;;;15.80;57.30;;;;;;5006074;27;88953;-71
2022/01/10 04:41:00;;;;;;;52.42;47.08;;;15.80;57.30;;;;;;5000103;27;89327;-72
2022/01/10 04:43:26;;;;;;;52.33;47.00;;;15.70;57.20;;;;;;5001411;27;90637;-72
2022/01/10 04:45:52;;;;;;;52.58;47.33;;;15.70;57.60;;;;;;5005363;27;90241;-71
2022/01/10 04:48:18;;;;;;;53.10;47.60;;;15.70;57.50;;;;;;5001961;27;89686;-71
2022/01/10 04:53:13;;;;;;;53.03;47.63;;;15.60;57.90;;;;;;4996128;27;88264;-71
2022/01/10 04:55:38;;;;;;;52.47;47.17;;;15.50;58.00;;;;;;4999110;27;90381;-71
2022/01/10 04:58:04;;;;;;;52.47;47.22;;;15.60;57.80;;;;;;5004282;27;88957;-71
2022/01/10 05:00:30;;;;;;;52.03;46.83;;;15.60;57.30;;;;;;4991560;27;91309;-71
2022/01/10 05:02:55;;;;;;;52.13;46.90;;;15.50;57.80;;;;;;5000292;27;89796;-71
2022/01/10 05:05:21;;;;;;;53.05;47.65;;;15.60;57.90;;;;;;4999802;27;90072;-71
2022/01/10 05:07:47;;;;;;;53.22;47.90;;;15.70;58.10;;;;;;4983108;27;89041;-71
2022/01/10 05:10:13;;;;;;;53.35;47.85;;;15.80;57.80;;;;;;5000952;27;90223;-71
2022/01/10 05:12:39;;;;;;;53.58;48.08;;;15.90;57.80;;;;;;4978874;28;89638;-71
2022/01/10 05:15:05;;;;;;;54.65;49.03;;;16.00;57.50;;;;;;4998976;27;90445;-71
2022/01/10 05:17:31;;;;;;;53.92;48.40;;;16.30;57.50;;;;;;5000761;27;94526;-71
2022/01/10 05:19:56;;;;;;;51.80;46.60;;;16.50;57.40;;;;;;5005345;27;89138;-71
2022/01/10 05:22:22;;;;;;;53.75;48.15;;;16.60;56.60;;;;;;4999593;27;89420;-71
2022/01/10 05:24:48;;;;;;;53.42;47.90;;;16.70;56.60;;;;;;4984566;27;90185;-71
2022/01/10 05:27:14;;;;;;;53.58;48.10;;;16.90;56.10;;;;;;5014739;27;89421;-71
2022/01/10 05:29:39;;;;;;;54.53;48.83;;;17.00;56.40;;;;;;4996657;27;89122;-71
2022/01/10 05:32:05;;;;;;;53.88;48.40;;;17.10;56.10;;;;;;4998056;27;91096;-72
2022/01/10 05:34:31;;;;;;;53.53;48.03;;;17.20;55.90;;;;;;4979993;27;94871;-72
2022/01/10 05:36:56;;;;;;;54.13;48.42;;;17.20;56.00;;;;;;4997934;27;88765;-71
2022/01/10 05:39:22;;;;;;;53.53;48.00;;;17.40;55.40;;;;;;5003146;27;89616;-71
2022/01/10 05:41:48;;;;;;;54.97;49.13;;;17.50;55.00;;;;;;5002628;27;89374;-71
2022/01/10 05:44:14;;;;;;;53.88;48.17;;;17.50;55.40;;;;;;5004127;27;89989;-71
2022/01/10 05:46:41;;;;;;;54.22;48.63;;;17.50;55.10;;;;;;5000629;27;89632;-71
2022/01/10 05:49:07;;;;;;;53.03;47.63;;;17.60;55.00;;;;;;5006048;27;91518;-70
2022/01/10 05:51:34;;;;;;;53.80;48.20;;;17.60;54.90;;;;;;5005587;27;90834;-71
2022/01/10 05:54:04;;;;;;;53.60;48.13;;;17.70;54.80;;;;;;5005679;27;91648;-71
2022/01/10 05:56:30;;;;;;;53.00;47.58;;;17.60;54.60;;;;;;5000633;27;89983;-72
2022/01/10 05:58:56;;;;;;;52.97;47.65;;;17.60;54.70;;;;;;5001771;27;89612;-71
2022/01/10 06:01:22;;;;;;;53.65;48.10;;;17.60;54.60;;;;;;4973270;27;95228;-69
2022/01/10 06:03:48;;;;;;;52.97;47.60;;;17.60;54.70;;;;;;4994442;27;89353;-69
2022/01/10 06:06:13;;;;;;;53.42;47.92;;;17.60;54.70;;;;;;5003870;27;89113;-71
2022/01/10 06:08:39;;;;;;;54.05;48.45;;;17.60;54.70;;;;;;5000789;27;90954;-72
2022/01/10 06:11:05;;;;;;;53.13;47.67;;;17.50;54.70;;;;;;5000015;27;89489;-72
2022/01/10 06:13:30;;;;;;;53.30;47.90;;;17.50;54.80;;;;;;4980250;27;91738;-72
2022/01/10 06:15:56;;;;;;;52.97;47.60;;;17.50;54.80;;;;;;4980044;27;89586;-71
2022/01/10 06:18:22;;;;;;;53.30;47.80;;;17.50;54.70;;;;;;4995741;27;91119;-74
2022/01/10 06:20:49;;;;;;;53.40;47.97;;;17.40;55.10;;;;;;5000816;27;98203;-76
2022/01/10 06:23:15;;;;;;;53.78;48.03;;;17.40;54.90;;;;;;5005462;27;90454;-76
2022/01/10 06:25:41;;;;;;;56.20;49.10;;;17.40;55.20;;;;;;5002395;27;95235;-76
2022/01/10 06:28:08;;;;;;;61.47;49.63;;;17.10;56.40;;;;;;4986435;27;91564;-80
2022/01/10 06:30:36;;;;;;;56.13;48.70;;;17.00;56.70;;;;;;4987500;27;91856;-79
2022/01/10 06:33:02;;;;;;;59.65;49.85;;;16.80;57.00;;;;;;5007141;27;89762;-73
2022/01/10 06:35:27;;;;;;;59.70;49.35;;;16.70;57.90;;;;;;5010595;27;90587;-74
2022/01/10 06:37:53;;;;;;;57.90;48.95;;;16.50;57.60;;;;;;5009229;27;92493;-74
2022/01/10 06:40:20;;;;;;;61.53;49.50;;;16.50;57.90;;;;;;5006695;27;89709;-74
2022/01/10 06:42:45;;;;;;;58.15;49.58;;;16.40;58.10;;;;;;5008381;27;90305;-74
2022/01/10 06:45:14;;;;;;;59.08;49.13;;;16.30;58.60;;;;;;4994982;27;89724;-74
2022/01/10 06:47:39;;;;;;;56.58;49.15;;;16.40;58.40;;;;;;4998291;27;91740;-73
2022/01/10 06:50:07;;;;;;;58.35;49.78;;;16.50;58.00;;;;;;5009375;27;91683;-76
2022/01/10 06:52:33;;;;;;;58.78;49.55;;;16.50;57.70;;;;;;5005309;27;93246;-76
2022/01/10 06:54:59;;;;;;;59.05;49.20;;;16.60;57.30;;;;;;5000961;27;90622;-74
2022/01/10 06:57:25;;;;;;;59.65;49.40;;;16.70;57.30;;;;;;5000061;27;90280;-80
2022/01/10 06:59:50;;;;;;;59.60;49.88;;;16.80;57.30;;;;;;5001593;27;89249;-79
2022/01/10 07:02:16;;;;;;;59.92;49.40;;;16.80;57.10;;;;;;5002228;27;90687;-80
2022/01/10 07:04:42;;;;;;;60.47;50.28;;;16.90;56.80;;;;;;5006375;27;88650;-79
2022/01/10 07:07:08;;;;;;;59.47;49.92;;;17.00;57.10;;;;;;5014102;27;90557;-79
2022/01/10 07:09:34;;;;;;;59.53;49.25;;;17.00;57.00;;;;;;5006987;27;89062;-79
2022/01/10 07:12:00;;;;;;;57.00;49.38;;;17.00;57.10;;;;;;4995988;27;89446;-81
2022/01/10 07:14:28;;;;;;;58.88;49.28;;;17.10;56.60;;;;;;5005614;27;90718;-79
2022/01/10 07:16:53;;;;;;;60.63;50.05;;;17.10;57.20;;;;;;5003043;27;95124;-79
2022/01/10 07:19:19;;;;;;;62.30;49.63;;;17.20;57.20;;;;;;5007135;27;89885;-79
2022/01/10 07:21:45;;;;;;;57.60;49.65;;;17.20;56.80;;;;;;5011869;27;91572;-79
2022/01/10 07:24:11;;;;;;;60.22;49.60;;;17.20;56.20;;;;;;5011136;27;89820;-76
2022/01/10 07:26:37;;;;;;;61.08;49.53;;;17.30;55.80;;;;;;5005569;27;90700;-77
2022/01/10 07:29:04;;;;;;;60.00;50.08;;;17.30;55.70;;;;;;5012748;27;90105;-77
2022/01/10 07:31:30;;;;;;;56.58;49.08;;;17.20;55.10;;;;;;5015920;27;90565;-77
2022/01/10 07:33:59;;;;;;;63.90;49.92;;;17.20;54.90;;;;;;4988434;27;91031;-76
2022/01/10 07:36:25;;;;;;;58.67;49.72;;;17.10;54.70;;;;;;4986965;27;90693;-79
2022/01/10 07:38:50;;;;;;;59.00;49.63;;;17.20;54.70;;;;;;5008136;27;89734;-80
2022/01/10 07:41:16;;;;;;;60.65;49.58;;;17.20;54.50;;;;;;5006060;27;89711;-78
2022/01/10 07:43:41;;;;;;;62.33;49.88;;;17.20;54.80;;;;;;5008076;27;89239;-81
2022/01/10 07:46:08;;;;;;;58.38;49.53;;;17.20;55.20;;;;;;5009542;27;90709;-79
2022/01/10 07:48:37;;;;;;;62.55;49.63;;;17.20;54.90;;;;;;5010661;27;90144;-80
2022/01/10 07:51:03;;;;;;;61.00;49.35;;;17.20;55.10;;;;;;5011472;27;90694;-78
2022/01/10 07:53:29;;;;;;;60.10;49.72;;;17.20;54.90;;;;;;4998245;27;90004;-75
2022/01/10 07:55:55;;;;;;;60.05;49.22;;;17.20;55.30;;;;;;4997706;27;90496;-76
2022/01/10 07:58:21;;;;;;;59.20;49.20;;;17.20;55.30;;;;;;5001671;27;89936;-79
2022/01/10 08:00:46;;;;;;;60.53;48.88;;;17.30;55.20;;;;;;4999887;27;90152;-79
2022/01/10 08:03:12;;;;;;;62.08;49.15;;;17.30;55.10;;;;;;5003015;27;90616;-81
2022/01/10 08:05:38;;;;;;;61.53;48.80;;;17.20;55.30;;;;;;5000020;27;89821;-77
2022/01/10 08:08:04;;;;;;;60.33;48.88;;;17.20;55.20;;;;;;4995418;27;91467;-76
2022/01/10 08:10:30;;;;;;;60.65;48.83;;;17.20;55.20;;;;;;4982873;27;90177;-77
2022/01/10 08:12:55;;;;;;;60.90;49.40;;;17.20;55.30;;;;;;5005329;27;89742;-78
2022/01/10 08:15:21;;;;;;;59.92;49.45;;;17.20;55.80;;;;;;4980581;27;92158;-78
2022/01/10 08:17:47;;;;;;;60.85;49.25;;;17.30;55.90;;;;;;4999649;27;90678;-77
2022/01/10 08:20:14;;;;;;;60.58;49.65;;;17.40;55.90;;;;;;4980983;27;91515;-77
2022/01/10 08:22:39;;;;;;;60.95;49.50;;;17.50;55.90;;;;;;5011025;27;90829;-77
2022/01/10 08:25:07;;;;;;;57.80;49.08;;;17.70;55.40;;;;;;4990699;27;90951;-79
2022/01/10 08:27:34;;;;;;;65.38;49.38;;;17.70;55.50;;;;;;4999674;27;91287;-78
2022/01/10 08:30:00;;;;;;;61.75;49.65;;;17.90;55.30;;;;;;5010418;27;90063;-76
2022/01/10 08:32:26;;;;;;;58.78;49.40;;;18.00;55.00;;;;;;5012682;27;89529;-77
2022/01/10 08:34:52;;;;;;;63.00;49.78;;;18.10;54.20;;;;;;4983665;27;90035;-79
2022/01/10 08:37:18;;;;;;;59.25;49.42;;;18.20;54.10;;;;;;4985801;27;92515;-77
2022/01/10 08:39:49;;;;;;;60.13;49.75;;;18.40;54.30;;;;;;5006231;27;92776;-77
2022/01/10 08:42:16;;;;;;;63.72;49.30;;;18.70;53.40;;;;;;5005350;27;90526;-73
2022/01/10 08:44:42;;;;;;;60.70;49.58;;;18.90;52.80;;;;;;5004299;27;89749;-75
2022/01/10 08:47:08;;;;;;;61.58;49.33;;;19.10;52.30;;;;;;4986404;27;90040;-77
2022/01/10 08:49:34;;;;;;;59.20;49.65;;;19.20;51.60;;;;;;4996020;27;90952;-78
2022/01/10 08:51:59;;;;;;;61.15;49.90;;;19.30;51.40;;;;;;5013369;27;90241;-78
2022/01/10 08:54:25;;;;;;;64.07;50.10;;;19.40;51.20;;;;;;5011407;27;89926;-76
2022/01/10 08:56:52;;;;;;;59.75;49.50;;;19.30;51.10;;;;;;5001290;27;89506;-78
2022/01/10 08:59:18;;;;;;;59.92;49.50;;;19.40;50.90;;;;;;5009654;27;90254;-78
2022/01/10 09:01:46;;;;;;;60.33;49.65;;;19.40;50.80;;;;;;5004084;27;89786;-75
2022/01/10 09:04:16;;;;;;;61.50;48.97;;;19.40;50.70;;;;;;4991352;28;92881;-76
2022/01/10 09:06:49;;;;;;;59.38;49.05;;;19.40;50.80;;;;;;4991473;27;95353;-75
2022/01/10 09:09:19;;;;;;;60.47;49.25;;;19.40;50.40;;;;;;4999457;27;91246;-75
2022/01/10 09:11:45;;;;;;;59.40;49.35;;;19.40;50.50;;;;;;4996971;27;91168;-77
2022/01/10 09:14:11;;;;;;;60.70;49.60;;;19.30;50.40;;;;;;5006916;27;91169;-76
2022/01/10 09:16:37;;;;;;;59.78;49.97;;;19.30;50.40;;;;;;5000588;27;91364;-76
2022/01/10 09:19:04;;;;;;;58.28;49.28;;;19.30;50.40;;;;;;4974143;27;90358;-75
2022/01/10 09:21:30;;;;;;;60.47;49.30;;;19.30;50.60;;;;;;5001653;27;89492;-75
2022/01/10 09:23:56;;;;;;;59.75;49.58;;;19.20;50.50;;;;;;4990090;27;91342;-76
2022/01/10 09:26:22;;;;;;;63.10;49.97;;;19.20;50.80;;;;;;4992620;27;90651;-81
2022/01/10 09:28:54;;;;;;;60.78;49.28;;;19.20;50.50;;;;;;5012487;27;91204;-80
2022/01/10 09:31:41;;;;;;;;;;;;;;;;;;;;;
2022/01/10 09:34:08;;;;;;;60.35;49.05;;;19.10;50.70;;;;;;5003984;27;119283;-81
2022/01/10 09:36:34;;;;;;;59.25;49.35;;;19.10;50.90;;;;;;4989681;27;91573;-81
2022/01/10 09:39:02;;;;;;;62.85;50.15;;;19.10;51.10;;;;;;5005699;27;92149;-78
2022/01/10 09:41:28;;;;;;;62.80;49.72;;;19.20;51.30;;;;;;5003542;27;95622;-81
2022/01/10 09:43:57;;;;;;;59.67;49.33;;;19.20;51.30;;;;;;4995879;27;90582;-80
2022/01/10 09:46:24;;;;;;;59.95;49.60;;;19.30;51.50;;;;;;5014582;27;89955;-79
2022/01/10 09:48:54;;;;;;;61.83;49.85;;;19.40;51.00;;;;;;5013605;27;90737;-81
2022/01/10 09:51:23;;;;;;;67.05;50.25;;;19.50;50.90;;;;;;5014452;27;90130;-82
2022/01/10 09:53:49;;;;;;;62.92;49.72;;;19.60;50.50;;;;;;4960939;27;93399;-79
2022/01/10 09:56:15;;;;;;;63.28;50.08;;;19.70;50.90;;;;;;4965482;27;93040;-77
2022/01/10 09:58:41;;;;;;;60.08;49.78;;;19.70;50.20;;;;;;4968162;27;90747;-78
2022/01/10 10:01:07;;;;;;;62.75;49.67;;;19.80;50.40;;;;;;4975112;27;91154;-78
2022/01/10 10:03:32;;;;;;;64.32;49.65;;;19.80;50.00;;;;;;4960997;27;91327;-76
2022/01/10 10:05:59;;;;;;;70.53;49.97;;;19.80;49.80;;;;;;4984822;27;91057;-76
2022/01/10 10:08:26;;;;;;;64.40;49.83;;;19.80;49.80;;;;;;4961241;27;91348;-78
2022/01/10 10:10:53;;;;;;;63.33;50.42;;;19.90;49.70;;;;;;4987828;27;93408;-76
2022/01/10 10:13:19;;;;;;;62.17;50.53;;;19.80;49.50;;;;;;4961578;27;91138;-79
2022/01/10 10:15:46;;;;;;;61.88;49.90;;;19.80;49.60;;;;;;4967725;27;91007;-75
2022/01/10 10:18:14;;;;;;;59.35;49.25;;;19.80;49.40;;;;;;4959024;27;92599;-78
2022/01/10 10:20:41;;;;;;;61.72;49.90;;;19.80;49.70;;;;;;4965544;27;91243;-76
2022/01/10 10:23:13;;;;;;;60.53;49.70;;;19.80;49.70;;;;;;4980867;27;95445;-77
2022/01/10 10:25:53;;;;;;;60.63;49.47;;;19.70;49.80;;;;;;4968538;27;95214;-74
2022/01/10 10:28:20;;;;;;;59.65;49.47;;;19.70;49.60;;;;;;4968680;27;91826;-80
2022/01/10 10:30:46;;;;;;;66.18;49.80;;;19.70;49.70;;;;;;4951396;27;90849;-78
2022/01/10 10:33:20;;;;;;;62.72;50.20;;;19.70;49.70;;;;;;4982861;27;92806;-79
2022/01/10 10:35:56;;;;;;;62.17;50.00;;;19.60;49.50;;;;;;4976820;27;92072;-79
2022/01/10 10:38:25;;;;;;;63.28;50.17;;;19.70;49.70;;;;;;4975046;27;91003;-77
2022/01/10 10:40:51;;;;;;;63.50;50.10;;;19.60;49.80;;;;;;4973026;27;90248;-78
2022/01/10 10:43:17;;;;;;;61.22;50.38;;;19.50;49.70;;;;;;4979304;27;93689;-80
2022/01/10 10:45:50;;;;;;;62.58;50.78;;;19.50;49.80;;;;;;4982010;27;92887;-75
2022/01/10 10:48:17;;;;;;;63.55;50.40;;;19.40;50.00;;;;;;4978460;27;90939;-77
2022/01/10 10:50:45;;;;;;;63.28;50.58;;;19.40;50.00;;;;;;4978987;27;90727;-78
2022/01/10 10:53:14;;;;;;;63.78;50.80;;;19.40;50.20;;;;;;4977926;27;92163;-78
2022/01/10 10:55:41;;;;;;;64.07;50.53;;;19.40;50.10;;;;;;4976736;27;93040;-78
2022/01/10 10:58:12;;;;;;;64.93;50.78;;;19.30;50.10;;;;;;4976868;27;90325;-77
2022/01/10 11:00:40;;;;;;;62.05;50.63;;;19.20;50.10;;;;;;4973534;27;89796;-76
2022/01/10 11:03:10;;;;;;;65.65;51.33;;;19.10;50.20;;;;;;4940638;27;91397;-74
2022/01/10 11:05:37;;;;;;;65.97;50.72;;;19.10;50.30;;;;;;4948810;27;91271;-78
2022/01/10 11:08:06;;;;;;;62.72;50.53;;;19.10;50.30;;;;;;4974934;27;93854;-77
2022/01/10 11:10:33;;;;;;;64.93;50.55;;;19.00;50.10;;;;;;4950011;27;94863;-77
2022/01/10 11:13:01;;;;;;;63.90;50.83;;;19.00;50.40;;;;;;4975120;27;91300;-74
2022/01/10 11:15:27;;;;;;;64.63;50.55;;;18.90;50.60;;;;;;4972242;27;91924;-75
2022/01/10 11:17:59;;;;;;;64.60;50.95;;;18.90;50.50;;;;;;4988904;27;90211;-73
2022/01/10 11:20:25;;;;;;;63.95;50.85;;;18.80;50.40;;;;;;4987173;27;89793;-74
2022/01/10 11:22:54;;;;;;;65.03;50.88;;;18.80;50.40;;;;;;4984094;27;90384;-74
2022/01/10 11:25:33;;;;;;;64.40;50.53;;;18.80;51.10;;;;;;4988960;27;90256;-74
2022/01/10 11:28:06;;;;;;;64.57;50.50;;;18.70;50.30;;;;;;4979726;27;91161;-74
2022/01/10 11:30:45;;;;;;;63.17;50.47;;;18.70;50.40;;;;;;4984578;27;89844;-75
2022/01/10 11:33:14;;;;;;;63.05;50.22;;;18.70;50.30;;;;;;4970018;27;91034;-75
2022/01/10 11:35:44;;;;;;;67.20;50.30;;;18.70;50.50;;;;;;4976322;27;93288;-75
2022/01/10 11:38:36;;;;;;;66.50;50.40;;;18.70;50.50;;;;;;4977766;27;92299;-75
2022/01/10 11:41:10;;;;;;;65.10;50.33;;;18.60;50.50;;;;;;4970577;27;96147;-74
2022/01/10 11:43:58;;;;;;;70.22;50.50;;;18.60;50.90;;;;;;4969935;27;92477;-75
2022/01/10 11:46:27;;;;;;;65.20;50.35;;;18.60;51.10;;;;;;4952341;27;91976;-74
2022/01/10 11:49:03;;;;;;;61.95;50.25;;;18.50;51.30;;;;;;4965742;27;95128;-76
2022/01/10 11:51:51;;;;;;;61.85;50.42;;;18.40;51.60;;;;;;4952976;27;91587;-73
2022/01/10 11:54:22;;;;;;;69.68;49.88;;;18.50;51.90;;;;;;4953200;27;94892;-73
2022/01/10 11:57:01;;;;;;;63.35;50.30;;;18.40;52.00;;;;;;4943844;27;92273;-75
2022/01/10 11:59:45;;;;;;;64.20;50.03;;;18.40;52.20;;;;;;4962325;27;91985;-74
2022/01/10 12:02:17;;;;;;;62.95;50.40;;;18.30;52.10;;;;;;4962050;27;90914;-76
2022/01/10 12:04:45;;;;;;;63.55;49.95;;;18.30;52.80;;;;;;4958419;27;91673;-74
2022/01/10 12:07:14;;;;;;;64.03;49.83;;;18.30;52.40;;;;;;4942118;27;91395;-75
2022/01/10 12:09:40;;;;;;;61.80;49.78;;;18.30;52.70;;;;;;4952556;27;90813;-73
2022/01/10 12:12:08;;;;;;;64.47;49.80;;;18.40;52.70;;;;;;4951418;27;91633;-73
2022/01/10 12:14:34;;;;;;;66.05;50.03;;;18.40;52.30;;;;;;4958795;27;92924;-74
2022/01/10 12:17:01;;;;;;;66.15;50.22;;;18.30;52.40;;;;;;4958102;27;94955;-74
2022/01/10 12:19:27;;;;;;;61.58;49.72;;;18.30;52.60;;;;;;4941211;27;90479;-73
2022/01/10 12:21:55;;;;;;;64.50;50.20;;;18.20;52.70;;;;;;4940135;27;92448;-74
2022/01/10 12:24:21;;;;;;;61.58;50.08;;;18.20;52.90;;;;;;4965979;27;92506;-73
2022/01/10 12:26:47;;;;;;;61.80;50.25;;;18.20;52.80;;;;;;4965478;27;91986;-74
2022/01/10 12:29:14;;;;;;;64.63;49.70;;;18.10;52.60;;;;;;4957641;27;91456;-74
2022/01/10 12:31:42;;;;;;;62.55;49.92;;;18.10;52.50;;;;;;4960993;27;91991;-75
2022/01/10 12:34:09;;;;;;;63.92;49.97;;;18.10;52.60;;;;;;4936797;27;91809;-74
2022/01/10 12:36:39;;;;;;;64.72;50.13;;;18.10;52.80;;;;;;4966659;27;92558;-74
2022/01/10 12:39:09;;;;;;;61.83;50.17;;;18.10;52.70;;;;;;4996002;27;90586;-73
2022/01/10 12:41:38;;;;;;;65.20;49.97;;;18.10;53.10;;;;;;4989129;27;90012;-73